sensor_id;sensor_type;location;lat;lon;timestamp;pressure;altitude;pressure_sealevel;temperature;humidity
71299;BME280;59083;47.974;21.722;2023-04-01T00:00:26;98964.31;;;10.59;100.00
71299;BME280;59083;47.974;21.722;2023-04-01T00:03:28;98968.41;;;10.55;100.00
71299;BME280;59083;47.974;21.722;2023-04-01T00:06:30;98970.94;;;10.50;100.00
71299;BME280;59083;47.974;21.722;2023-04-01T00:09:31;98961.16;;;10.44;100.00
71299;BME280;59083;47.974;21.722;2023-04-01T00:12:33;98965.78;;;10.37;100.00
71299;BME280;59083;47.974;21.722;2023-04-01T00:15:35;98956.44;;;10.27;100.00
71299;BME280;59083;47.974;21.722;2023-04-01T00:18:36;98946.66;;;10.21;100.00
71299;BME280;59083;47.974;21.722;2023-04-01T00:21:37;98946.66;;;10.21;100.00
71299;BME280;59083;47.974;21.722;2023-04-01T00:24:38;98944.59;;;10.23;100.00
71299;BME280;59083;47.974;21.722;2023-04-01T00:27:40;98946.22;;;10.24;100.00
71299;BME280;59083;47.974;21.722;2023-04-01T00:30:41;98935.59;;;10.24;100.00
71299;BME280;59083;47.974;21.722;2023-04-01T00:33:43;98936.81;;;10.22;100.00
71299;BME280;59083;47.974;21.722;2023-04-01T00:36:44;98932.91;;;10.24;100.00
71299;BME280;59083;47.974;21.722;2023-04-01T00:39:45;98944.38;;;10.25;100.00
71299;BME280;59083;47.974;21.722;2023-04-01T00:42:46;98938.66;;;10.21;100.00
71299;BME280;59083;47.974;21.722;2023-04-01T00:45:48;98941.13;;;10.23;100.00
71299;BME280;59083;47.974;21.722;2023-04-01T00:48:52;98929.66;;;10.22;100.00
71299;BME280;59083;47.974;21.722;2023-04-01T00:51:57;98924.13;;;10.24;100.00
71299;BME280;59083;47.974;21.722;2023-04-01T00:55:01;98929.81;;;10.27;100.00
71299;BME280;59083;47.974;21.722;2023-04-01T00:58:07;98926.13;;;10.28;100.00
71299;BME280;59083;47.974;21.722;2023-04-01T01:01:10;98931.88;;;10.25;100.00
71299;BME280;59083;47.974;21.722;2023-04-01T01:04:33;98924.94;;;10.24;100.00
71299;BME280;59083;47.974;21.722;2023-04-01T01:11:14;98925.38;;;10.21;100.00
71299;BME280;59083;47.974;21.722;2023-04-01T01:14:26;98910.41;;;10.20;100.00
71299;BME280;59083;47.974;21.722;2023-04-01T01:24:12;98909.84;;;10.18;100.00
71299;BME280;59083;47.974;21.722;2023-04-01T01:27:18;98908.22;;;10.17;100.00
71299;BME280;59083;47.974;21.722;2023-04-01T01:30:35;98901.44;;;10.15;100.00
71299;BME280;59083;47.974;21.722;2023-04-01T01:36:48;98887.78;;;10.11;100.00
71299;BME280;59083;47.974;21.722;2023-04-01T01:40:03;98896.41;;;10.07;100.00
71299;BME280;59083;47.974;21.722;2023-04-01T01:43:09;98891.16;;;10.00;100.00
71299;BME280;59083;47.974;21.722;2023-04-01T01:46:14;98894.50;;;9.95;100.00
71299;BME280;59083;47.974;21.722;2023-04-01T01:49:18;98903.72;;;9.93;100.00
71299;BME280;59083;47.974;21.722;2023-04-01T01:52:21;98913.75;;;9.91;100.00
71299;BME280;59083;47.974;21.722;2023-04-01T01:55:38;98911.37;;;9.83;100.00
71299;BME280;59083;47.974;21.722;2023-04-01T01:58:45;98900.75;;;9.83;100.00
71299;BME280;59083;47.974;21.722;2023-04-01T02:01:50;98904.00;;;9.85;100.00
71299;BME280;59083;47.974;21.722;2023-04-01T02:04:53;98905.47;;;9.81;100.00
71299;BME280;59083;47.974;21.722;2023-04-01T02:08:22;98911.81;;;9.80;100.00
71299;BME280;59083;47.974;21.722;2023-04-01T02:11:29;98907.97;;;9.76;100.00
71299;BME280;59083;47.974;21.722;2023-04-01T02:14:39;98903.66;;;9.75;100.00
71299;BME280;59083;47.974;21.722;2023-04-01T02:17:44;98895.13;;;9.73;100.00
71299;BME280;59083;47.974;21.722;2023-04-01T02:20:48;98904.34;;;9.70;100.00
71299;BME280;59083;47.974;21.722;2023-04-01T02:23:52;98900.84;;;9.70;100.00
71299;BME280;59083;47.974;21.722;2023-04-01T02:26:54;98913.13;;;9.71;100.00
71299;BME280;59083;47.974;21.722;2023-04-01T02:29:56;98913.13;;;9.71;100.00
71299;BME280;59083;47.974;21.722;2023-04-01T02:32:58;98907.00;;;9.70;100.00
71299;BME280;59083;47.974;21.722;2023-04-01T02:35:59;98910.91;;;9.68;100.00
71299;BME280;59083;47.974;21.722;2023-04-01T02:39:01;98910.31;;;9.66;100.00
71299;BME280;59083;47.974;21.722;2023-04-01T02:42:05;98908.06;;;9.63;100.00
71299;BME280;59083;47.974;21.722;2023-04-01T02:45:07;98908.69;;;9.65;100.00
71299;BME280;59083;47.974;21.722;2023-04-01T02:48:08;98904.63;;;9.62;100.00
71299;BME280;59083;47.974;21.722;2023-04-01T02:51:10;98899.06;;;9.64;100.00
71299;BME280;59083;47.974;21.722;2023-04-01T02:54:11;98913.38;;;9.63;100.00
71299;BME280;59083;47.974;21.722;2023-04-01T02:57:12;98904.63;;;9.62;100.00
71299;BME280;59083;47.974;21.722;2023-04-01T03:00:14;98912.38;;;9.64;100.00
71299;BME280;59083;47.974;21.722;2023-04-01T03:03:16;98916.03;;;9.63;100.00
71299;BME280;59083;47.974;21.722;2023-04-01T03:06:17;98910.72;;;9.63;100.00
71299;BME280;59083;47.974;21.722;2023-04-01T03:09:19;98911.78;;;9.62;100.00
71299;BME280;59083;47.974;21.722;2023-04-01T03:12:20;98910.16;;;9.61;100.00
71299;BME280;59083;47.974;21.722;2023-04-01T03:15:23;98916.50;;;9.60;100.00
71299;BME280;59083;47.974;21.722;2023-04-01T03:18:24;98904.22;;;9.59;100.00
71299;BME280;59083;47.974;21.722;2023-04-01T03:21:26;98912.03;;;9.53;100.00
71299;BME280;59083;47.974;21.722;2023-04-01T03:24:27;98902.22;;;9.54;100.00
71299;BME280;59083;47.974;21.722;2023-04-01T03:27:29;98903.84;;;9.55;100.00
71299;BME280;59083;47.974;21.722;2023-04-01T03:30:30;98921.03;;;9.52;100.00
71299;BME280;59083;47.974;21.722;2023-04-01T03:33:32;98913.50;;;9.49;100.00
71299;BME280;59083;47.974;21.722;2023-04-01T03:36:33;98915.34;;;9.49;100.00
71299;BME280;59083;47.974;21.722;2023-04-01T03:39:35;98913.50;;;9.49;100.00
71299;BME280;59083;47.974;21.722;2023-04-01T03:42:36;98912.91;;;9.47;100.00
71299;BME280;59083;47.974;21.722;2023-04-01T03:45:45;98906.41;;;9.43;100.00
71299;BME280;59083;47.974;21.722;2023-04-01T03:48:47;98913.78;;;9.41;100.00
71299;BME280;59083;47.974;21.722;2023-04-01T03:51:49;98916.25;;;9.36;100.00
71299;BME280;59083;47.974;21.722;2023-04-01T03:54:50;98912.84;;;9.29;100.00
71299;BME280;59083;47.974;21.722;2023-04-01T03:57:51;98905.91;;;9.28;100.00
71299;BME280;59083;47.974;21.722;2023-04-01T04:00:52;98907.78;;;9.21;100.00
71299;BME280;59083;47.974;21.722;2023-04-01T04:03:54;98907.00;;;9.14;100.00
71299;BME280;59083;47.974;21.722;2023-04-01T04:06:56;98912.00;;;9.04;100.00
71299;BME280;59083;47.974;21.722;2023-04-01T04:09:58;98914.88;;;8.96;100.00
71299;BME280;59083;47.974;21.722;2023-04-01T04:12:59;98905.09;;;8.90;100.00
71299;BME280;59083;47.974;21.722;2023-04-01T04:16:03;98907.59;;;8.85;100.00
71299;BME280;59083;47.974;21.722;2023-04-01T04:19:05;98905.78;;;8.79;100.00
71299;BME280;59083;47.974;21.722;2023-04-01T04:22:06;98904.75;;;8.80;100.00
71299;BME280;59083;47.974;21.722;2023-04-01T04:25:07;98900.69;;;8.77;100.00
71299;BME280;59083;47.974;21.722;2023-04-01T04:28:09;98903.56;;;8.76;100.00
71299;BME280;59083;47.974;21.722;2023-04-01T04:31:10;98905.19;;;8.77;100.00
71299;BME280;59083;47.974;21.722;2023-04-01T04:34:15;98912.13;;;8.78;100.00
71299;BME280;59083;47.974;21.722;2023-04-01T04:37:16;98907.00;;;8.83;100.00
71299;BME280;59083;47.974;21.722;2023-04-01T04:40:18;98909.22;;;8.86;100.00
71299;BME280;59083;47.974;21.722;2023-04-01T04:43:19;98915.16;;;8.88;100.00
71299;BME280;59083;47.974;21.722;2023-04-01T04:46:21;98915.16;;;8.88;100.00
71299;BME280;59083;47.974;21.722;2023-04-01T04:49:23;98912.88;;;8.91;100.00
71299;BME280;59083;47.974;21.722;2023-04-01T04:52:25;98917.75;;;8.94;100.00
71299;BME280;59083;47.974;21.722;2023-04-01T04:55:26;98923.88;;;8.95;100.00
71299;BME280;59083;47.974;21.722;2023-04-01T04:58:30;98927.97;;;8.97;100.00
71299;BME280;59083;47.974;21.722;2023-04-01T05:01:31;98928.34;;;9.01;100.00
71299;BME280;59083;47.974;21.722;2023-04-01T05:04:35;98935.09;;;9.03;100.00
71299;BME280;59083;47.974;21.722;2023-04-01T05:07:37;98931.47;;;9.23;100.00
71299;BME280;59083;47.974;21.722;2023-04-01T05:10:39;98938.25;;;10.00;100.00
71299;BME280;59083;47.974;21.722;2023-04-01T05:13:41;98946.91;;;10.74;100.00
71299;BME280;59083;47.974;21.722;2023-04-01T05:16:43;98932.88;;;11.92;100.00
71299;BME280;59083;47.974;21.722;2023-04-01T05:19:44;98938.28;;;12.95;97.05
71299;BME280;59083;47.974;21.722;2023-04-01T05:22:45;98935.19;;;13.43;87.64
71299;BME280;59083;47.974;21.722;2023-04-01T05:25:48;98926.34;;;13.93;88.48
71299;BME280;59083;47.974;21.722;2023-04-01T05:28:49;98924.53;;;14.54;84.05
71299;BME280;59083;47.974;21.722;2023-04-01T05:31:50;98954.31;;;14.96;81.58
71299;BME280;59083;47.974;21.722;2023-04-01T05:34:52;98944.81;;;14.88;82.10
71299;BME280;59083;47.974;21.722;2023-04-01T05:37:53;98931.22;;;15.21;77.73
71299;BME280;59083;47.974;21.722;2023-04-01T05:40:59;98931.41;;;14.88;78.43
71299;BME280;59083;47.974;21.722;2023-04-01T05:44:01;98943.47;;;13.75;83.97
71299;BME280;59083;47.974;21.722;2023-04-01T05:47:04;98942.66;;;14.85;83.36
71299;BME280;59083;47.974;21.722;2023-04-01T05:50:05;98937.53;;;15.59;76.08
71299;BME280;59083;47.974;21.722;2023-04-01T05:53:07;98942.41;;;15.67;74.77
71299;BME280;59083;47.974;21.722;2023-04-01T05:56:08;98940.38;;;14.77;76.76
71299;BME280;59083;47.974;21.722;2023-04-01T05:59:12;98924.81;;;14.74;76.80
71299;BME280;59083;47.974;21.722;2023-04-01T06:02:16;98936.22;;;14.26;78.90
71299;BME280;59083;47.974;21.722;2023-04-01T06:05:21;98939.22;;;14.68;79.02
71299;BME280;59083;47.974;21.722;2023-04-01T06:08:24;98929.78;;;14.43;78.92
71299;BME280;59083;47.974;21.722;2023-04-01T06:11:38;98943.75;;;14.45;79.44
71299;BME280;59083;47.974;21.722;2023-04-01T06:38:24;98909.03;;;14.56;77.88
71299;BME280;59083;47.974;21.722;2023-04-01T06:42:10;98919.94;;;14.71;75.74
71299;BME280;59083;47.974;21.722;2023-04-01T06:48:44;98931.06;;;15.33;74.13
71299;BME280;59083;47.974;21.722;2023-04-01T06:52:02;98931.56;;;15.52;73.29
71299;BME280;59083;47.974;21.722;2023-04-01T06:58:33;98920.13;;;14.86;74.74
71299;BME280;59083;47.974;21.722;2023-04-01T07:01:40;98920.28;;;15.01;76.49
71299;BME280;59083;47.974;21.722;2023-04-01T07:04:46;98917.13;;;15.09;73.02
71299;BME280;59083;47.974;21.722;2023-04-01T07:07:52;98923.22;;;15.00;75.63
71299;BME280;59083;47.974;21.722;2023-04-01T07:11:01;98924.03;;;15.00;76.11
71299;BME280;59083;47.974;21.722;2023-04-01T07:14:16;98909.28;;;14.54;76.60
71299;BME280;59083;47.974;21.722;2023-04-01T07:17:23;98922.78;;;14.42;77.65
71299;BME280;59083;47.974;21.722;2023-04-01T07:20:30;98911.09;;;14.32;77.58
71299;BME280;59083;47.974;21.722;2023-04-01T07:23:38;98919.22;;;13.48;80.86
71299;BME280;59083;47.974;21.722;2023-04-01T07:26:42;98918.81;;;13.56;82.85
71299;BME280;59083;47.974;21.722;2023-04-01T07:29:44;98915.44;;;14.16;81.06
71299;BME280;59083;47.974;21.722;2023-04-01T07:33:16;98914.81;;;14.47;82.16
71299;BME280;59083;47.974;21.722;2023-04-01T07:36:42;98922.78;;;14.42;79.59
71299;BME280;59083;47.974;21.722;2023-04-01T07:54:15;98920.72;;;15.15;77.84
71299;BME280;59083;47.974;21.722;2023-04-01T08:07:34;98909.19;;;15.46;73.97
71299;BME280;59083;47.974;21.722;2023-04-01T08:10:57;98907.06;;;15.80;72.62
71299;BME280;59083;47.974;21.722;2023-04-01T08:14:18;98900.59;;;15.76;74.38
71299;BME280;59083;47.974;21.722;2023-04-01T08:17:33;98908.41;;;15.51;74.23
71299;BME280;59083;47.974;21.722;2023-04-01T08:20:47;98908.28;;;15.62;71.76
71299;BME280;59083;47.974;21.722;2023-04-01T08:23:52;98904.72;;;15.25;72.34
71299;BME280;59083;47.974;21.722;2023-04-01T08:26:58;98911.47;;;15.32;73.40
71299;BME280;59083;47.974;21.722;2023-04-01T08:30:06;98916.19;;;15.79;73.50
71299;BME280;59083;47.974;21.722;2023-04-01T08:33:21;98916.50;;;15.83;68.58
71299;BME280;59083;47.974;21.722;2023-04-01T08:36:50;98922.88;;;16.13;68.17
71299;BME280;59083;47.974;21.722;2023-04-01T08:40:17;98911.28;;;16.55;67.99
71299;BME280;59083;47.974;21.722;2023-04-01T09:06:35;98910.59;;;16.23;67.54
71299;BME280;59083;47.974;21.722;2023-04-01T09:23:24;98902.47;;;16.18;66.68
71299;BME280;59083;47.974;21.722;2023-04-01T09:36:37;98904.84;;;16.09;65.96
71299;BME280;59083;47.974;21.722;2023-04-01T09:43:16;98902.56;;;16.33;65.50
71299;BME280;59083;47.974;21.722;2023-04-01T09:46:54;98905.97;;;15.76;66.71
71299;BME280;59083;47.974;21.722;2023-04-01T09:50:31;98903.63;;;16.32;67.49
71299;BME280;59083;47.974;21.722;2023-04-01T10:32:21;98895.59;;;15.90;67.33
71299;BME280;59083;47.974;21.722;2023-04-01T10:42:47;98906.62;;;15.56;67.99
71299;BME280;59083;47.974;21.722;2023-04-01T10:50:04;98897.91;;;15.49;70.15
71299;BME280;59083;47.974;21.722;2023-04-01T11:31:11;98882.81;;;16.59;62.88
71299;BME280;59083;47.974;21.722;2023-04-01T11:34:48;98884.59;;;16.43;65.15
71299;BME280;59083;47.974;21.722;2023-04-01T11:42:06;98885.38;;;15.87;65.34
71299;BME280;59083;47.974;21.722;2023-04-01T11:52:01;98875.53;;;16.02;62.88
71299;BME280;59083;47.974;21.722;2023-04-01T11:55:24;98885.38;;;16.34;65.08
71299;BME280;59083;47.974;21.722;2023-04-01T12:05:26;98879.81;;;16.50;65.46
71299;BME280;59083;47.974;21.722;2023-04-01T12:08:52;98874.19;;;16.57;63.95
71299;BME280;59083;47.974;21.722;2023-04-01T12:19:21;98871.44;;;16.47;64.38
71299;BME280;59083;47.974;21.722;2023-04-01T12:26:13;98875.72;;;16.38;64.64
71299;BME280;59083;47.974;21.722;2023-04-01T12:42:51;98877.75;;;16.16;62.79
71299;BME280;59083;47.974;21.722;2023-04-01T12:49:28;98878.03;;;16.76;62.93
71299;BME280;59083;47.974;21.722;2023-04-01T12:56:02;98869.47;;;16.84;62.35
71299;BME280;59083;47.974;21.722;2023-04-01T13:02:49;98878.63;;;16.93;63.47
71299;BME280;59083;47.974;21.722;2023-04-01T13:06:17;98873.72;;;16.70;63.73
71299;BME280;59083;47.974;21.722;2023-04-01T13:09:47;98877.91;;;16.46;62.59
71299;BME280;59083;47.974;21.722;2023-04-01T13:16:19;98872.66;;;16.81;63.98
71299;BME280;59083;47.974;21.722;2023-04-01T13:29:33;98877.91;;;16.46;63.86
71299;BME280;59083;47.974;21.722;2023-04-01T13:36:54;98876.16;;;16.20;64.80
71299;BME280;59083;47.974;21.722;2023-04-01T13:40:02;98876.22;;;16.35;63.81
71299;BME280;59083;47.974;21.722;2023-04-01T13:56:43;98889.41;;;15.89;62.19
71299;BME280;59083;47.974;21.722;2023-04-01T14:03:37;98880.84;;;15.92;63.86
71299;BME280;59083;47.974;21.722;2023-04-01T14:10:28;98890.56;;;16.03;63.67
71299;BME280;59083;47.974;21.722;2023-04-01T14:23:51;98891.50;;;15.77;62.78
71299;BME280;59083;47.974;21.722;2023-04-01T14:27:02;98893.41;;;15.82;63.32
71299;BME280;59083;47.974;21.722;2023-04-01T14:50:15;98899.19;;;16.05;65.34
71299;BME280;59083;47.974;21.722;2023-04-01T14:53:29;98899.19;;;16.00;64.37
71299;BME280;59083;47.974;21.722;2023-04-01T14:57:11;98895.37;;;15.96;64.04
71299;BME280;59083;47.974;21.722;2023-04-01T15:00:14;98895.97;;;16.08;63.95
71299;BME280;59083;47.974;21.722;2023-04-01T15:06:37;98906.09;;;15.91;64.43
71299;BME280;59083;47.974;21.722;2023-04-01T15:09:54;98902.94;;;15.99;64.86
71299;BME280;59083;47.974;21.722;2023-04-01T15:16:47;98904.63;;;15.79;65.07
71299;BME280;59083;47.974;21.722;2023-04-01T15:30:33;98906.88;;;15.55;66.79
71299;BME280;59083;47.974;21.722;2023-04-01T15:43:40;98914.47;;;15.36;68.34
71299;BME280;59083;47.974;21.722;2023-04-01T15:46:47;98912.28;;;15.33;67.28
71299;BME280;59083;47.974;21.722;2023-04-01T15:53:37;98912.00;;;15.29;69.01
71299;BME280;59083;47.974;21.722;2023-04-01T16:00:26;98926.37;;;15.18;68.17
71299;BME280;59083;47.974;21.722;2023-04-01T16:23:22;98937.41;;;14.52;71.83
71299;BME280;59083;47.974;21.722;2023-04-01T16:26:39;98939.50;;;14.50;73.49
71299;BME280;59083;47.974;21.722;2023-04-01T16:43:26;98949.78;;;14.19;74.04
71299;BME280;59083;47.974;21.722;2023-04-01T16:46:34;98966.28;;;14.11;74.16
71299;BME280;59083;47.974;21.722;2023-04-01T16:50:05;98967.19;;;14.00;74.64
71299;BME280;59083;47.974;21.722;2023-04-01T16:56:23;98969.59;;;13.85;75.74
71299;BME280;59083;47.974;21.722;2023-04-01T16:59:36;98977.56;;;13.80;76.24
71299;BME280;59083;47.974;21.722;2023-04-01T17:02:45;98977.38;;;13.70;76.54
71299;BME280;59083;47.974;21.722;2023-04-01T17:05:55;98981.53;;;13.60;77.64
71299;BME280;59083;47.974;21.722;2023-04-01T17:12:40;98989.84;;;13.47;77.45
71299;BME280;59083;47.974;21.722;2023-04-01T17:16:13;98994.37;;;13.47;77.39
71299;BME280;59083;47.974;21.722;2023-04-01T17:19:34;98992.44;;;13.42;78.21
71299;BME280;59083;47.974;21.722;2023-04-01T17:26:28;98996.75;;;13.43;78.50
71299;BME280;59083;47.974;21.722;2023-04-01T17:43:43;99004.03;;;13.48;78.43
71299;BME280;59083;47.974;21.722;2023-04-01T17:47:17;99010.13;;;13.43;78.37
71299;BME280;59083;47.974;21.722;2023-04-01T18:01:08;99029.72;;;13.32;78.41
71299;BME280;59083;47.974;21.722;2023-04-01T18:07:44;99030.53;;;13.33;78.52
71299;BME280;59083;47.974;21.722;2023-04-01T18:21:59;99039.06;;;13.18;79.73
71299;BME280;59083;47.974;21.722;2023-04-01T18:25:28;99038.72;;;13.14;80.04
71299;BME280;59083;47.974;21.722;2023-04-01T18:31:39;99056.97;;;13.06;81.09
71299;BME280;59083;47.974;21.722;2023-04-01T18:35:22;99060.56;;;13.00;81.69
71299;BME280;59083;47.974;21.722;2023-04-01T18:38:37;99062.09;;;12.96;82.43
71299;BME280;59083;47.974;21.722;2023-04-01T18:41:52;99067.44;;;12.96;83.01
71299;BME280;59083;47.974;21.722;2023-04-01T18:45:08;99067.34;;;12.91;83.45
71299;BME280;59083;47.974;21.722;2023-04-01T18:54:33;99078.63;;;12.93;84.82
71299;BME280;59083;47.974;21.722;2023-04-01T19:04:33;99075.28;;;12.74;89.14
71299;BME280;59083;47.974;21.722;2023-04-01T19:11:02;99083.50;;;12.72;89.67
71299;BME280;59083;47.974;21.722;2023-04-01T19:14:59;99079.47;;;12.70;89.97
71299;BME280;59083;47.974;21.722;2023-04-01T19:21:47;99077.13;;;12.50;91.10
71299;BME280;59083;47.974;21.722;2023-04-01T19:28:49;99084.31;;;12.26;91.50
71299;BME280;59083;47.974;21.722;2023-04-01T19:35:20;99096.13;;;12.07;92.80
71299;BME280;59083;47.974;21.722;2023-04-01T19:48:55;99117.13;;;12.04;93.77
71299;BME280;59083;47.974;21.722;2023-04-01T19:58:57;99112.62;;;11.56;96.15
71299;BME280;59083;47.974;21.722;2023-04-01T20:05:33;99128.47;;;11.51;96.92
71299;BME280;59083;47.974;21.722;2023-04-01T20:08:41;99130.19;;;11.45;96.93
71299;BME280;59083;47.974;21.722;2023-04-01T20:14:58;99124.94;;;11.39;96.81
71299;BME280;59083;47.974;21.722;2023-04-01T20:21:46;99127.09;;;11.30;96.74
71299;BME280;59083;47.974;21.722;2023-04-01T20:24:48;99129.69;;;11.18;97.09
71299;BME280;59083;47.974;21.722;2023-04-01T20:31:13;99136.72;;;11.13;97.27
71299;BME280;59083;47.974;21.722;2023-04-01T20:38:16;99139.44;;;11.06;98.28
71299;BME280;59083;47.974;21.722;2023-04-01T20:44:45;99140.16;;;10.95;99.30
71299;BME280;59083;47.974;21.722;2023-04-01T20:51:21;99145.03;;;10.80;98.53
71299;BME280;59083;47.974;21.722;2023-04-01T20:54:59;99147.09;;;10.78;98.86
71299;BME280;59083;47.974;21.722;2023-04-01T21:05:33;99155.91;;;10.54;99.15
71299;BME280;59083;47.974;21.722;2023-04-01T21:09:02;99158.41;;;10.49;98.96
71299;BME280;59083;47.974;21.722;2023-04-01T21:12:21;99159.88;;;10.45;99.63
71299;BME280;59083;47.974;21.722;2023-04-01T21:26:23;99174.06;;;10.39;100.00
71299;BME280;59083;47.974;21.722;2023-04-01T21:29:36;99179.47;;;10.25;100.00
71299;BME280;59083;47.974;21.722;2023-04-01T21:50:06;99196.34;;;10.19;98.30
71299;BME280;59083;47.974;21.722;2023-04-01T22:00:36;99181.03;;;10.02;100.00
71299;BME280;59083;47.974;21.722;2023-04-01T22:06:52;99187.25;;;9.89;100.00
71299;BME280;59083;47.974;21.722;2023-04-01T22:13:07;99191.38;;;9.85;100.00
71299;BME280;59083;47.974;21.722;2023-04-01T22:20:04;99198.75;;;9.76;100.00
71299;BME280;59083;47.974;21.722;2023-04-01T22:23:29;99197.12;;;9.75;100.00
71299;BME280;59083;47.974;21.722;2023-04-01T22:32:52;99207.41;;;9.59;100.00
71299;BME280;59083;47.974;21.722;2023-04-01T22:39:38;99211.28;;;9.63;100.00
71299;BME280;59083;47.974;21.722;2023-04-01T22:42:50;99211.28;;;9.63;100.00
71299;BME280;59083;47.974;21.722;2023-04-01T22:46:20;99209.25;;;9.65;100.00
71299;BME280;59083;47.974;21.722;2023-04-01T22:49:32;99209.25;;;9.65;100.00
71299;BME280;59083;47.974;21.722;2023-04-01T22:52:40;99220.91;;;9.64;100.00
71299;BME280;59083;47.974;21.722;2023-04-01T22:55:45;99224.66;;;9.49;100.00
71299;BME280;59083;47.974;21.722;2023-04-01T22:59:06;99221.78;;;9.44;100.00
71299;BME280;59083;47.974;21.722;2023-04-01T23:02:15;99225.22;;;9.51;100.00
71299;BME280;59083;47.974;21.722;2023-04-01T23:05:20;99225.44;;;9.57;100.00
71299;BME280;59083;47.974;21.722;2023-04-01T23:08:55;99224.59;;;9.63;100.00
71299;BME280;59083;47.974;21.722;2023-04-01T23:12:07;99232.16;;;9.72;100.00
71299;BME280;59083;47.974;21.722;2023-04-01T23:15:13;99225.81;;;9.67;100.00
71299;BME280;59083;47.974;21.722;2023-04-01T23:18:22;99229.06;;;9.69;100.00
71299;BME280;59083;47.974;21.722;2023-04-01T23:21:35;99224.59;;;9.63;100.00
71299;BME280;59083;47.974;21.722;2023-04-01T23:24:46;99244.25;;;9.62;100.00
71299;BME280;59083;47.974;21.722;2023-04-01T23:28:18;99235.22;;;9.63;100.00
71299;BME280;59083;47.974;21.722;2023-04-01T23:31:28;99233.63;;;9.62;100.00
71299;BME280;59083;47.974;21.722;2023-04-01T23:34:32;99242.41;;;9.62;100.00
71299;BME280;59083;47.974;21.722;2023-04-01T23:37:34;99238.50;;;9.65;100.00
71299;BME280;59083;47.974;21.722;2023-04-01T23:40:36;99245.28;;;9.61;100.00
71299;BME280;59083;47.974;21.722;2023-04-01T23:43:39;99248.34;;;9.58;100.00
71299;BME280;59083;47.974;21.722;2023-04-01T23:46:44;99247.13;;;9.60;100.00
71299;BME280;59083;47.974;21.722;2023-04-01T23:53:04;99260.63;;;9.59;100.00
71299;BME280;59083;47.974;21.722;2023-04-01T23:56:10;99258.56;;;9.61;100.00
71299;BME280;59083;47.974;21.722;2023-04-01T23:59:32;99260.41;;;9.67;100.00
